sensor_id;sensor_type;location;lat;lon;timestamp;pressure;altitude;pressure_sealevel;temperature;humidity
13050;BME280;6591;51.446;5.404;2023-04-12T00:01:04;100251.44;;;15.80;44.41
13050;BME280;6591;51.446;5.404;2023-04-12T00:03:31;100249.81;;;15.78;44.45
13050;BME280;6591;51.446;5.404;2023-04-12T00:06:01;100239.22;;;15.76;44.40
13050;BME280;6591;51.446;5.404;2023-04-12T00:08:29;100225.13;;;15.74;44.44
13050;BME280;6591;51.446;5.404;2023-04-12T00:11:02;100221.69;;;15.72;44.46
13050;BME280;6591;51.446;5.404;2023-04-12T00:13:30;100215.47;;;15.72;44.63
13050;BME280;6591;51.446;5.404;2023-04-12T00:15:57;100200.53;;;15.69;44.66
13050;BME280;6591;51.446;5.404;2023-04-12T00:18:24;100202.34;;;15.68;44.86
13050;BME280;6591;51.446;5.404;2023-04-12T00:20:53;100206.97;;;15.66;44.82
13050;BME280;6591;51.446;5.404;2023-04-12T00:23:21;100196.25;;;15.66;45.09
13050;BME280;6591;51.446;5.404;2023-04-12T00:25:48;100186.50;;;15.65;45.13
13050;BME280;6591;51.446;5.404;2023-04-12T00:28:15;100173.97;;;15.66;44.98
13050;BME280;6591;51.446;5.404;2023-04-12T00:30:43;100159.13;;;15.62;45.17
13050;BME280;6591;51.446;5.404;2023-04-12T00:33:11;100158.28;;;15.61;45.33
13050;BME280;6591;51.446;5.404;2023-04-12T00:35:40;100151.22;;;15.60;45.26
13050;BME280;6591;51.446;5.404;2023-04-12T00:38:08;100151.22;;;15.60;45.27
13050;BME280;6591;51.446;5.404;2023-04-12T00:40:43;100129.97;;;15.59;45.77
13050;BME280;6591;51.446;5.404;2023-04-12T00:43:10;100130.81;;;15.59;45.32
13050;BME280;6591;51.446;5.404;2023-04-12T00:45:41;100120.94;;;15.60;45.23
13050;BME280;6591;51.446;5.404;2023-04-12T00:48:09;100112.91;;;15.60;45.37
13050;BME280;6591;51.446;5.404;2023-04-12T00:50:38;100107.81;;;15.57;45.48
13050;BME280;6591;51.446;5.404;2023-04-12T00:53:12;100109.72;;;15.55;45.49
13050;BME280;6591;51.446;5.404;2023-04-12T00:55:44;100097.47;;;15.52;45.91
13050;BME280;6591;51.446;5.404;2023-04-12T00:58:13;100084.09;;;15.52;45.73
13050;BME280;6591;51.446;5.404;2023-04-12T01:00:42;100073.44;;;15.51;45.81
13050;BME280;6591;51.446;5.404;2023-04-12T01:03:20;100059.38;;;15.49;45.85
13050;BME280;6591;51.446;5.404;2023-04-12T01:11:44;100041.13;;;15.43;46.10
13050;BME280;6591;51.446;5.404;2023-04-12T01:15:01;100030.88;;;15.37;46.24
13050;BME280;6591;51.446;5.404;2023-04-12T01:17:36;100014.47;;;15.41;46.06
13050;BME280;6591;51.446;5.404;2023-04-12T01:20:11;100018.84;;;15.42;46.24
13050;BME280;6591;51.446;5.404;2023-04-12T01:23:08;99998.78;;;15.37;46.34
13050;BME280;6591;51.446;5.404;2023-04-12T01:26:14;99999.50;;;15.39;46.29
13050;BME280;6591;51.446;5.404;2023-04-12T01:28:53;99982.38;;;15.41;46.16
13050;BME280;6591;51.446;5.404;2023-04-12T01:31:21;99967.91;;;15.44;45.99
13050;BME280;6591;51.446;5.404;2023-04-12T01:33:53;99961.81;;;15.42;46.25
13050;BME280;6591;51.446;5.404;2023-04-12T01:36:22;99960.84;;;15.43;46.26
13050;BME280;6591;51.446;5.404;2023-04-12T01:38:54;99958.19;;;15.43;46.31
13050;BME280;6591;51.446;5.404;2023-04-12T01:41:22;99947.47;;;15.43;46.42
13050;BME280;6591;51.446;5.404;2023-04-12T01:43:49;99939.44;;;15.43;46.38
13050;BME280;6591;51.446;5.404;2023-04-12T01:46:21;99928.00;;;15.41;46.53
13050;BME280;6591;51.446;5.404;2023-04-12T01:48:54;99930.69;;;15.41;46.66
13050;BME280;6591;51.446;5.404;2023-04-12T01:52:24;99925.59;;;15.38;46.87
13050;BME280;6591;51.446;5.404;2023-04-12T01:54:37;99923.78;;;15.38;46.58
13050;BME280;6591;51.446;5.404;2023-04-12T01:57:05;99912.94;;;15.40;46.59
13050;BME280;6591;51.446;5.404;2023-04-12T01:59:40;99903.19;;;15.39;46.71
13050;BME280;6591;51.446;5.404;2023-04-12T02:02:10;99896.88;;;15.40;46.62
13050;BME280;6591;51.446;5.404;2023-04-12T02:04:38;99879.84;;;15.41;46.64
13050;BME280;6591;51.446;5.404;2023-04-12T02:07:07;99878.88;;;15.42;46.72
13050;BME280;6591;51.446;5.404;2023-04-12T02:09:36;99878.88;;;15.42;46.56
13050;BME280;6591;51.446;5.404;2023-04-12T02:12:06;99866.38;;;15.42;46.89
13050;BME280;6591;51.446;5.404;2023-04-12T02:14:35;99863.69;;;15.42;46.91
13050;BME280;6591;51.446;5.404;2023-04-12T02:17:03;99859.31;;;15.41;46.77
13050;BME280;6591;51.446;5.404;2023-04-12T02:19:31;99853.00;;;15.42;47.16
13050;BME280;6591;51.446;5.404;2023-04-12T02:21:59;99836.94;;;15.42;46.92
13050;BME280;6591;51.446;5.404;2023-04-12T02:24:28;99823.56;;;15.42;46.97
13050;BME280;6591;51.446;5.404;2023-04-12T02:26:57;99828.06;;;15.42;47.16
13050;BME280;6591;51.446;5.404;2023-04-12T02:29:26;99814.69;;;15.42;46.99
13050;BME280;6591;51.446;5.404;2023-04-12T02:31:53;99825.38;;;15.42;47.10
13050;BME280;6591;51.446;5.404;2023-04-12T02:34:22;99817.25;;;15.43;47.18
13050;BME280;6591;51.446;5.404;2023-04-12T02:36:57;99796.81;;;15.42;47.08
13050;BME280;6591;51.446;5.404;2023-04-12T02:39:24;99792.31;;;15.43;47.01
13050;BME280;6591;51.446;5.404;2023-04-12T02:41:51;99790.50;;;15.43;47.21
13050;BME280;6591;51.446;5.404;2023-04-12T02:44:19;99789.63;;;15.43;47.40
13050;BME280;6591;51.446;5.404;2023-04-12T02:47:02;99785.13;;;15.43;47.22
13050;BME280;6591;51.446;5.404;2023-04-12T02:49:32;99776.09;;;15.44;47.32
13050;BME280;6591;51.446;5.404;2023-04-12T02:52:00;99766.25;;;15.45;46.98
13050;BME280;6591;51.446;5.404;2023-04-12T02:54:36;99746.56;;;15.46;47.44
13050;BME280;6591;51.446;5.404;2023-04-12T02:57:04;99745.59;;;15.47;47.43
13050;BME280;6591;51.446;5.404;2023-04-12T02:59:40;99739.28;;;15.48;47.42
13050;BME280;6591;51.446;5.404;2023-04-12T03:02:15;99726.00;;;15.46;47.31
13050;BME280;6591;51.446;5.404;2023-04-12T03:04:43;99720.53;;;15.48;47.41
13050;BME280;6591;51.446;5.404;2023-04-12T03:07:19;99700.97;;;15.47;47.44
13050;BME280;6591;51.446;5.404;2023-04-12T03:09:52;99693.78;;;15.48;47.66
13050;BME280;6591;51.446;5.404;2023-04-12T03:12:21;99704.34;;;15.49;47.23
13050;BME280;6591;51.446;5.404;2023-04-12T03:15:03;99697.31;;;15.48;47.44
13050;BME280;6591;51.446;5.404;2023-04-12T03:17:31;99695.50;;;15.49;47.29
13050;BME280;6591;51.446;5.404;2023-04-12T03:20:06;99695.63;;;15.47;47.56
13050;BME280;6591;51.446;5.404;2023-04-12T03:22:38;99680.41;;;15.48;47.91
13050;BME280;6591;51.446;5.404;2023-04-12T03:25:08;99683.94;;;15.48;47.29
13050;BME280;6591;51.446;5.404;2023-04-12T03:27:40;99672.38;;;15.48;47.62
13050;BME280;6591;51.446;5.404;2023-04-12T03:30:09;99659.13;;;15.46;47.51
13050;BME280;6591;51.446;5.404;2023-04-12T03:32:40;99664.47;;;15.46;47.49
13050;BME280;6591;51.446;5.404;2023-04-12T03:35:10;99663.75;;;15.44;47.67
13050;BME280;6591;51.446;5.404;2023-04-12T03:37:41;99661.94;;;15.45;47.47
13050;BME280;6591;51.446;5.404;2023-04-12T03:40:10;99649.56;;;15.44;47.75
13050;BME280;6591;51.446;5.404;2023-04-12T03:42:42;99652.34;;;15.42;47.66
13050;BME280;6591;51.446;5.404;2023-04-12T03:45:14;99649.81;;;15.41;47.30
13050;BME280;6591;51.446;5.404;2023-04-12T03:47:45;99642.75;;;15.40;47.82
13050;BME280;6591;51.446;5.404;2023-04-12T03:50:17;99630.34;;;15.39;48.39
13050;BME280;6591;51.446;5.404;2023-04-12T03:52:52;99632.31;;;15.37;47.83
13050;BME280;6591;51.446;5.404;2023-04-12T03:55:19;99629.66;;;15.37;47.93
13050;BME280;6591;51.446;5.404;2023-04-12T03:57:49;99628.78;;;15.36;47.86
13050;BME280;6591;51.446;5.404;2023-04-12T04:00:18;99615.53;;;15.35;48.02
13050;BME280;6591;51.446;5.404;2023-04-12T04:03:02;99609.50;;;15.33;47.97
13050;BME280;6591;51.446;5.404;2023-04-12T04:05:38;99603.28;;;15.32;48.17
13050;BME280;6591;51.446;5.404;2023-04-12T04:08:06;99597.09;;;15.32;48.13
13050;BME280;6591;51.446;5.404;2023-04-12T04:10:46;99586.50;;;15.30;48.23
13050;BME280;6591;51.446;5.404;2023-04-12T04:13:14;99591.00;;;15.30;48.36
13050;BME280;6591;51.446;5.404;2023-04-12T04:15:41;99587.63;;;15.27;48.51
13050;BME280;6591;51.446;5.404;2023-04-12T04:18:09;99586.78;;;15.27;48.19
13050;BME280;6591;51.446;5.404;2023-04-12T04:20:37;99576.09;;;15.27;48.17
13050;BME280;6591;51.446;5.404;2023-04-12T04:23:04;99575.25;;;15.26;48.58
13050;BME280;6591;51.446;5.404;2023-04-12T04:25:33;99569.88;;;15.26;48.49
13050;BME280;6591;51.446;5.404;2023-04-12T04:28:05;99566.38;;;15.26;48.43
13050;BME280;6591;51.446;5.404;2023-04-12T04:30:33;99566.38;;;15.26;48.67
13050;BME280;6591;51.446;5.404;2023-04-12T04:33:07;99562.00;;;15.25;48.69
13050;BME280;6591;51.446;5.404;2023-04-12T04:35:38;99560.16;;;15.25;48.32
13050;BME280;6591;51.446;5.404;2023-04-12T04:38:21;99560.16;;;15.25;48.61
13050;BME280;6591;51.446;5.404;2023-04-12T04:40:59;99545.09;;;15.24;48.58
13050;BME280;6591;51.446;5.404;2023-04-12T04:43:42;99547.66;;;15.26;48.77
13050;BME280;6591;51.446;5.404;2023-04-12T04:46:12;99548.50;;;15.26;48.72
13050;BME280;6591;51.446;5.404;2023-04-12T04:48:40;99552.88;;;15.27;48.67
13050;BME280;6591;51.446;5.404;2023-04-12T04:51:07;99546.53;;;15.28;48.65
13050;BME280;6591;51.446;5.404;2023-04-12T04:53:34;99542.03;;;15.29;49.16
13050;BME280;6591;51.446;5.404;2023-04-12T04:56:03;99538.25;;;15.32;49.02
13050;BME280;6591;51.446;5.404;2023-04-12T04:58:33;99538.13;;;15.33;49.21
13050;BME280;6591;51.446;5.404;2023-04-12T05:01:00;99536.28;;;15.34;49.25
13050;BME280;6591;51.446;5.404;2023-04-12T05:03:29;99528.25;;;15.34;49.46
13050;BME280;6591;51.446;5.404;2023-04-12T05:05:59;99537.00;;;15.36;49.20
13050;BME280;6591;51.446;5.404;2023-04-12T05:08:29;99537.00;;;15.36;49.38
13050;BME280;6591;51.446;5.404;2023-04-12T05:10:57;99533.34;;;15.37;49.41
13050;BME280;6591;51.446;5.404;2023-04-12T05:13:28;99530.56;;;15.38;49.28
13050;BME280;6591;51.446;5.404;2023-04-12T05:15:55;99530.41;;;15.40;49.22
13050;BME280;6591;51.446;5.404;2023-04-12T05:18:21;99519.69;;;15.40;49.57
13050;BME280;6591;51.446;5.404;2023-04-12T05:20:49;99519.44;;;15.43;49.36
13050;BME280;6591;51.446;5.404;2023-04-12T05:23:16;99518.47;;;15.44;49.47
13050;BME280;6591;51.446;5.404;2023-04-12T05:25:45;99506.78;;;15.45;49.15
13050;BME280;6591;51.446;5.404;2023-04-12T05:28:14;99511.88;;;15.48;49.50
13050;BME280;6591;51.446;5.404;2023-04-12T05:30:44;99519.91;;;15.48;49.32
13050;BME280;6591;51.446;5.404;2023-04-12T05:33:14;99507.22;;;15.50;49.73
13050;BME280;6591;51.446;5.404;2023-04-12T05:35:45;99507.97;;;15.52;49.54
13050;BME280;6591;51.446;5.404;2023-04-12T05:38:12;99507.84;;;15.53;49.71
13050;BME280;6591;51.446;5.404;2023-04-12T05:40:41;99512.06;;;15.56;49.42
13050;BME280;6591;51.446;5.404;2023-04-12T05:43:11;99519.13;;;15.57;49.86
13050;BME280;6591;51.446;5.404;2023-04-12T05:45:39;99522.66;;;15.57;49.60
13050;BME280;6591;51.446;5.404;2023-04-12T05:48:08;99521.69;;;15.58;49.82
13050;BME280;6591;51.446;5.404;2023-04-12T05:50:36;99516.91;;;15.62;49.82
13050;BME280;6591;51.446;5.404;2023-04-12T05:53:03;99516.78;;;15.63;49.91
13050;BME280;6591;51.446;5.404;2023-04-12T05:55:32;99515.78;;;15.64;49.74
13050;BME280;6591;51.446;5.404;2023-04-12T05:58:03;99521.72;;;15.68;49.76
13050;BME280;6591;51.446;5.404;2023-04-12T06:00:30;99512.72;;;15.69;50.00
13050;BME280;6591;51.446;5.404;2023-04-12T06:02:58;99509.88;;;15.71;50.05
13050;BME280;6591;51.446;5.404;2023-04-12T06:05:25;99516.94;;;15.72;50.08
13050;BME280;6591;51.446;5.404;2023-04-12T06:07:52;99506.09;;;15.73;50.09
13050;BME280;6591;51.446;5.404;2023-04-12T06:10:19;99504.16;;;15.75;50.18
13050;BME280;6591;51.446;5.404;2023-04-12T06:12:50;99506.53;;;15.78;50.09
13050;BME280;6591;51.446;5.404;2023-04-12T06:15:18;99501.19;;;15.78;50.25
13050;BME280;6591;51.446;5.404;2023-04-12T06:17:51;99500.91;;;15.81;50.13
13050;BME280;6591;51.446;5.404;2023-04-12T06:20:19;99499.78;;;15.84;50.11
13050;BME280;6591;51.446;5.404;2023-04-12T06:22:46;99505.72;;;15.87;50.20
13050;BME280;6591;51.446;5.404;2023-04-12T06:25:15;99504.59;;;15.90;50.34
13050;BME280;6591;51.446;5.404;2023-04-12T06:27:45;99500.78;;;15.92;50.08
13050;BME280;6591;51.446;5.404;2023-04-12T06:30:15;99486.16;;;15.96;50.25
13050;BME280;6591;51.446;5.404;2023-04-12T06:32:42;99489.41;;;16.00;50.35
13050;BME280;6591;51.446;5.404;2023-04-12T06:35:10;99486.59;;;16.01;50.17
13050;BME280;6591;51.446;5.404;2023-04-12T06:37:37;99492.53;;;16.05;50.39
13050;BME280;6591;51.446;5.404;2023-04-12T06:40:05;99487.84;;;16.07;50.32
13050;BME280;6591;51.446;5.404;2023-04-12T06:42:32;99484.94;;;16.10;50.37
13050;BME280;6591;51.446;5.404;2023-04-12T06:44:59;99477.56;;;16.12;50.57
13050;BME280;6591;51.446;5.404;2023-04-12T06:47:26;99477.44;;;16.14;49.99
13050;BME280;6591;51.446;5.404;2023-04-12T06:49:53;99484.50;;;16.15;50.52
13050;BME280;6591;51.446;5.404;2023-04-12T06:52:25;99496.19;;;16.14;50.44
13050;BME280;6591;51.446;5.404;2023-04-12T06:54:54;99492.97;;;16.10;50.47
13050;BME280;6591;51.446;5.404;2023-04-12T06:57:23;99483.50;;;16.06;50.56
13050;BME280;6591;51.446;5.404;2023-04-12T06:59:50;99491.97;;;16.01;50.72
13050;BME280;6591;51.446;5.404;2023-04-12T07:02:17;99494.91;;;15.98;50.71
13050;BME280;6591;51.446;5.404;2023-04-12T07:04:45;99489.66;;;15.97;51.16
13050;BME280;6591;51.446;5.404;2023-04-12T07:07:12;99488.13;;;15.94;51.12
13050;BME280;6591;51.446;5.404;2023-04-12T07:09:39;99487.16;;;15.95;51.21
13050;BME280;6591;51.446;5.404;2023-04-12T07:12:06;99485.31;;;15.96;50.88
13050;BME280;6591;51.446;5.404;2023-04-12T07:14:33;99494.19;;;15.96;51.19
13050;BME280;6591;51.446;5.404;2023-04-12T07:17:00;99492.22;;;15.98;51.21
13050;BME280;6591;51.446;5.404;2023-04-12T07:19:27;99489.41;;;16.00;51.05
13050;BME280;6591;51.446;5.404;2023-04-12T07:21:57;99486.59;;;16.01;51.45
13050;BME280;6591;51.446;5.404;2023-04-12T07:24:24;99497.88;;;16.05;51.91
13050;BME280;6591;51.446;5.404;2023-04-12T07:26:54;99493.38;;;16.05;51.84
13050;BME280;6591;51.446;5.404;2023-04-12T07:29:22;99499.28;;;16.09;52.58
13050;BME280;6591;51.446;5.404;2023-04-12T07:31:49;99496.47;;;16.10;52.41
13050;BME280;6591;51.446;5.404;2023-04-12T07:34:17;99498.19;;;16.12;52.49
13050;BME280;6591;51.446;5.404;2023-04-12T07:36:44;99494.50;;;16.13;52.73
13050;BME280;6591;51.446;5.404;2023-04-12T07:39:11;99488.88;;;16.16;52.54
13050;BME280;6591;51.446;5.404;2023-04-12T07:41:38;99489.56;;;16.18;52.96
13050;BME280;6591;51.446;5.404;2023-04-12T07:44:06;99479.28;;;16.23;53.18
13050;BME280;6591;51.446;5.404;2023-04-12T07:46:33;99477.75;;;16.30;53.13
13050;BME280;6591;51.446;5.404;2023-04-12T07:49:00;99473.69;;;16.35;53.37
13050;BME280;6591;51.446;5.404;2023-04-12T07:51:29;99464.94;;;16.43;53.62
13050;BME280;6591;51.446;5.404;2023-04-12T07:53:56;99467.75;;;16.51;53.60
13050;BME280;6591;51.446;5.404;2023-04-12T07:56:24;99478.75;;;16.58;53.65
13050;BME280;6591;51.446;5.404;2023-04-12T07:58:51;99483.59;;;16.64;53.79
13050;BME280;6591;51.446;5.404;2023-04-12T08:01:18;99483.31;;;16.67;53.72
13050;BME280;6591;51.446;5.404;2023-04-12T08:03:46;99474.16;;;16.69;53.57
13050;BME280;6591;51.446;5.404;2023-04-12T08:06:13;99476.66;;;16.71;53.46
13050;BME280;6591;51.446;5.404;2023-04-12T08:08:41;99475.38;;;16.75;53.51
13050;BME280;6591;51.446;5.404;2023-04-12T08:11:08;99482.00;;;16.80;53.89
13050;BME280;6591;51.446;5.404;2023-04-12T08:13:35;99487.78;;;16.85;54.12
13050;BME280;6591;51.446;5.404;2023-04-12T08:16:02;99488.91;;;16.92;54.21
13050;BME280;6591;51.446;5.404;2023-04-12T08:18:29;99496.53;;;16.97;54.05
13050;BME280;6591;51.446;5.404;2023-04-12T08:20:57;99497.78;;;17.03;54.18
13050;BME280;6591;51.446;5.404;2023-04-12T08:23:25;99498.91;;;17.10;54.18
13050;BME280;6591;51.446;5.404;2023-04-12T08:25:52;99489.16;;;17.18;54.37
13050;BME280;6591;51.446;5.404;2023-04-12T08:28:29;99487.59;;;17.25;54.27
13050;BME280;6591;51.446;5.404;2023-04-12T08:30:57;99495.91;;;17.32;54.49
13050;BME280;6591;51.446;5.404;2023-04-12T08:33:25;99493.63;;;17.37;54.11
13050;BME280;6591;51.446;5.404;2023-04-12T08:35:52;99502.78;;;17.44;54.25
13050;BME280;6591;51.446;5.404;2023-04-12T08:38:20;99487.06;;;17.49;54.38
13050;BME280;6591;51.446;5.404;2023-04-12T08:41:04;99485.38;;;17.58;54.72
13050;BME280;6591;51.446;5.404;2023-04-12T08:43:33;99479.00;;;17.68;54.76
13050;BME280;6591;51.446;5.404;2023-04-12T08:46:00;99469.44;;;17.84;55.00
13050;BME280;6591;51.446;5.404;2023-04-12T08:48:28;99478.53;;;18.00;55.21
13050;BME280;6591;51.446;5.404;2023-04-12T08:50:59;99478.56;;;18.18;54.84
13050;BME280;6591;51.446;5.404;2023-04-12T08:53:26;99477.72;;;18.35;54.97
13050;BME280;6591;51.446;5.404;2023-04-12T08:55:53;99476.75;;;18.54;54.92
13050;BME280;6591;51.446;5.404;2023-04-12T08:58:21;99480.44;;;18.71;54.91
13050;BME280;6591;51.446;5.404;2023-04-12T09:00:49;99479.59;;;18.88;54.95
13050;BME280;6591;51.446;5.404;2023-04-12T09:03:16;99485.38;;;19.01;54.23
13050;BME280;6591;51.446;5.404;2023-04-12T09:05:43;99478.38;;;19.08;53.46
13050;BME280;6591;51.446;5.404;2023-04-12T09:08:11;99476.06;;;19.13;53.46
13050;BME280;6591;51.446;5.404;2023-04-12T09:10:39;99475.75;;;19.16;53.54
13050;BME280;6591;51.446;5.404;2023-04-12T09:13:08;99462.50;;;19.23;53.61
13050;BME280;6591;51.446;5.404;2023-04-12T09:15:35;99461.88;;;19.29;53.50
13050;BME280;6591;51.446;5.404;2023-04-12T09:18:09;99461.44;;;19.41;54.01
13050;BME280;6591;51.446;5.404;2023-04-12T09:20:37;99455.50;;;19.56;54.26
13050;BME280;6591;51.446;5.404;2023-04-12T09:23:34;99445.09;;;19.69;53.75
13050;BME280;6591;51.446;5.404;2023-04-12T09:26:04;99448.41;;;19.88;53.41
13050;BME280;6591;51.446;5.404;2023-04-12T09:28:32;99456.16;;;20.00;53.23
13050;BME280;6591;51.446;5.404;2023-04-12T09:30:59;99455.50;;;20.06;52.63
13050;BME280;6591;51.446;5.404;2023-04-12T09:33:38;99456.69;;;20.11;52.80
13050;BME280;6591;51.446;5.404;2023-04-12T09:36:08;99461.44;;;20.17;52.51
13050;BME280;6591;51.446;5.404;2023-04-12T09:38:39;99455.03;;;20.26;53.24
13050;BME280;6591;51.446;5.404;2023-04-12T09:41:19;99441.78;;;20.41;53.36
13050;BME280;6591;51.446;5.404;2023-04-12T09:43:52;99446.00;;;20.68;53.49
13050;BME280;6591;51.446;5.404;2023-04-12T09:46:19;99434.53;;;20.90;53.08
13050;BME280;6591;51.446;5.404;2023-04-12T09:48:53;99436.53;;;21.12;52.09
13050;BME280;6591;51.446;5.404;2023-04-12T09:51:30;99429.28;;;21.29;51.63
13050;BME280;6591;51.446;5.404;2023-04-12T09:54:00;99431.94;;;21.45;51.10
13050;BME280;6591;51.446;5.404;2023-04-12T09:56:30;99439.16;;;21.53;50.06
13050;BME280;6591;51.446;5.404;2023-04-12T09:59:04;99434.13;;;21.50;49.04
13050;BME280;6591;51.446;5.404;2023-04-12T10:01:40;99424.31;;;21.41;48.41
13050;BME280;6591;51.446;5.404;2023-04-12T10:04:08;99424.00;;;21.36;48.93
13050;BME280;6591;51.446;5.404;2023-04-12T10:06:36;99425.53;;;21.30;48.45
13050;BME280;6591;51.446;5.404;2023-04-12T10:09:04;99442.63;;;21.23;48.20
13050;BME280;6591;51.446;5.404;2023-04-12T10:11:33;99441.44;;;21.17;48.42
13050;BME280;6591;51.446;5.404;2023-04-12T10:14:04;99443.31;;;21.08;47.70
13050;BME280;6591;51.446;5.404;2023-04-12T10:16:33;99448.38;;;21.03;48.06
13050;BME280;6591;51.446;5.404;2023-04-12T10:19:02;99446.50;;;20.96;47.52
13050;BME280;6591;51.446;5.404;2023-04-12T10:21:30;99446.53;;;20.88;47.86
13050;BME280;6591;51.446;5.404;2023-04-12T10:23:57;99444.34;;;20.75;47.12
13050;BME280;6591;51.446;5.404;2023-04-12T10:26:25;99447.88;;;20.59;46.47
13050;BME280;6591;51.446;5.404;2023-04-12T10:29:27;99452.19;;;20.28;46.54
13050;BME280;6591;51.446;5.404;2023-04-12T10:34:54;99455.97;;;19.93;46.55
13050;BME280;6591;51.446;5.404;2023-04-12T10:38:01;99463.47;;;19.73;45.59
13050;BME280;6591;51.446;5.404;2023-04-12T10:40:32;99458.22;;;19.64;44.95
13050;BME280;6591;51.446;5.404;2023-04-12T10:45:48;99475.84;;;19.32;44.75
13050;BME280;6591;51.446;5.404;2023-04-12T10:48:49;99471.00;;;19.10;45.07
13050;BME280;6591;51.446;5.404;2023-04-12T10:51:21;99478.59;;;18.89;45.17
13050;BME280;6591;51.446;5.404;2023-04-12T10:56:43;99470.97;;;18.31;45.90
13050;BME280;6591;51.446;5.404;2023-04-12T10:59:19;99484.00;;;18.08;46.21
13050;BME280;6591;51.446;5.404;2023-04-12T11:02:10;99485.69;;;17.82;46.72
13050;BME280;6591;51.446;5.404;2023-04-12T11:05:07;99484.94;;;17.62;46.99
13050;BME280;6591;51.446;5.404;2023-04-12T11:07:52;99490.31;;;17.53;47.47
13050;BME280;6591;51.446;5.404;2023-04-12T11:10:40;99488.81;;;17.41;48.03
13050;BME280;6591;51.446;5.404;2023-04-12T11:13:13;99489.38;;;17.34;48.24
13050;BME280;6591;51.446;5.404;2023-04-12T11:15:41;99491.53;;;17.31;48.50
13050;BME280;6591;51.446;5.404;2023-04-12T11:18:12;99506.22;;;17.27;48.94
13050;BME280;6591;51.446;5.404;2023-04-12T11:20:40;99504.13;;;17.21;49.32
13050;BME280;6591;51.446;5.404;2023-04-12T11:23:07;99510.75;;;17.17;49.70
13050;BME280;6591;51.446;5.404;2023-04-12T11:25:37;99497.94;;;17.11;49.99
13050;BME280;6591;51.446;5.404;2023-04-12T11:28:04;99496.50;;;17.07;50.34
13050;BME280;6591;51.446;5.404;2023-04-12T11:30:54;99484.38;;;17.03;50.77
13050;BME280;6591;51.446;5.404;2023-04-12T11:33:38;99489.47;;;17.06;51.33
13050;BME280;6591;51.446;5.404;2023-04-12T11:36:11;99484.94;;;17.16;51.56
13050;BME280;6591;51.446;5.404;2023-04-12T11:38:39;99480.63;;;17.32;51.91
13050;BME280;6591;51.446;5.404;2023-04-12T11:41:08;99483.41;;;17.50;52.34
13050;BME280;6591;51.446;5.404;2023-04-12T11:43:35;99480.81;;;17.68;52.55
13050;BME280;6591;51.446;5.404;2023-04-12T11:46:04;99476.19;;;17.88;52.64
13050;BME280;6591;51.446;5.404;2023-04-12T11:48:32;99475.63;;;18.11;52.79
13050;BME280;6591;51.446;5.404;2023-04-12T11:50:59;99470.66;;;18.34;52.86
13050;BME280;6591;51.446;5.404;2023-04-12T11:53:37;99474.44;;;18.59;52.61
13050;BME280;6591;51.446;5.404;2023-04-12T11:56:05;99477.84;;;18.79;52.50
13050;BME280;6591;51.446;5.404;2023-04-12T11:58:32;99479.63;;;18.96;52.09
13050;BME280;6591;51.446;5.404;2023-04-12T12:00:59;99482.28;;;19.14;51.63
13050;BME280;6591;51.446;5.404;2023-04-12T12:03:27;99484.25;;;19.29;51.49
13050;BME280;6591;51.446;5.404;2023-04-12T12:05:55;99499.81;;;19.43;51.42
13050;BME280;6591;51.446;5.404;2023-04-12T12:08:22;99517.69;;;19.44;49.13
13050;BME280;6591;51.446;5.404;2023-04-12T12:10:50;99532.97;;;19.18;47.60
13050;BME280;6591;51.446;5.404;2023-04-12T12:13:53;99547.22;;;18.57;46.73
13050;BME280;6591;51.446;5.404;2023-04-12T12:16:28;99554.16;;;18.05;47.12
13050;BME280;6591;51.446;5.404;2023-04-12T12:18:56;99557.72;;;17.59;47.54
13050;BME280;6591;51.446;5.404;2023-04-12T12:21:24;99555.78;;;17.13;48.15
13050;BME280;6591;51.446;5.404;2023-04-12T12:23:52;99568.09;;;16.77;48.82
13050;BME280;6591;51.446;5.404;2023-04-12T12:26:23;99559.28;;;16.46;49.19
13050;BME280;6591;51.446;5.404;2023-04-12T12:28:53;99541.91;;;16.22;49.96
13050;BME280;6591;51.446;5.404;2023-04-12T12:31:25;99549.72;;;16.04;50.75
13050;BME280;6591;51.446;5.404;2023-04-12T12:33:59;99542.66;;;15.93;51.18
13050;BME280;6591;51.446;5.404;2023-04-12T12:36:34;99531.06;;;15.83;51.86
13050;BME280;6591;51.446;5.404;2023-04-12T12:39:09;99520.34;;;15.83;52.20
13050;BME280;6591;51.446;5.404;2023-04-12T12:41:39;99521.53;;;15.90;52.80
13050;BME280;6591;51.446;5.404;2023-04-12T12:44:06;99518.75;;;16.01;53.60
13050;BME280;6591;51.446;5.404;2023-04-12T12:46:34;99512.28;;;16.23;54.23
13050;BME280;6591;51.446;5.404;2023-04-12T12:49:05;99507.66;;;16.54;55.10
13050;BME280;6591;51.446;5.404;2023-04-12T12:51:32;99509.41;;;16.84;55.14
13050;BME280;6591;51.446;5.404;2023-04-12T12:53:58;99503.56;;;17.08;55.05
13050;BME280;6591;51.446;5.404;2023-04-12T12:56:26;99507.47;;;17.32;54.47
13050;BME280;6591;51.446;5.404;2023-04-12T12:58:53;99517.00;;;17.54;54.28
13050;BME280;6591;51.446;5.404;2023-04-12T13:01:20;99517.25;;;17.70;53.35
13050;BME280;6591;51.446;5.404;2023-04-12T13:03:47;99522.44;;;17.82;53.20
13050;BME280;6591;51.446;5.404;2023-04-12T13:06:15;99520.88;;;17.89;52.72
13050;BME280;6591;51.446;5.404;2023-04-12T13:08:42;99533.31;;;17.90;52.06
13050;BME280;6591;51.446;5.404;2023-04-12T13:11:09;99538.97;;;17.87;51.78
13050;BME280;6591;51.446;5.404;2023-04-12T13:13:36;99544.38;;;17.77;51.21
13050;BME280;6591;51.446;5.404;2023-04-12T13:16:03;99551.06;;;17.63;50.98
13050;BME280;6591;51.446;5.404;2023-04-12T13:18:30;99585.97;;;17.44;51.01
13050;BME280;6591;51.446;5.404;2023-04-12T13:20:57;99609.19;;;17.16;50.10
13050;BME280;6591;51.446;5.404;2023-04-12T13:23:24;99603.25;;;16.74;48.67
13050;BME280;6591;51.446;5.404;2023-04-12T13:25:51;99585.75;;;16.30;49.37
13050;BME280;6591;51.446;5.404;2023-04-12T13:28:18;99526.03;;;15.90;50.13
13050;BME280;6591;51.446;5.404;2023-04-12T13:30:46;99546.84;;;15.56;50.85
13050;BME280;6591;51.446;5.404;2023-04-12T13:33:15;99542.88;;;15.30;51.78
13050;BME280;6591;51.446;5.404;2023-04-12T13:35:47;99544.31;;;15.13;52.25
13050;BME280;6591;51.446;5.404;2023-04-12T13:38:14;99520.19;;;15.03;52.95
13050;BME280;6591;51.446;5.404;2023-04-12T13:40:41;99519.22;;;15.04;53.57
13050;BME280;6591;51.446;5.404;2023-04-12T13:43:08;99520.25;;;15.13;53.97